createdAt,value
2022-12-05T00:02:18.191Z,101296.88
2022-12-05T00:04:46.895Z,101285.84
2022-12-05T00:07:15.629Z,101297.69
2022-12-05T00:09:44.295Z,101294.63
2022-12-05T00:12:12.976Z,101292.91
2022-12-05T00:14:41.595Z,101295.91
2022-12-05T00:17:10.269Z,101296.00
2022-12-05T00:19:41.086Z,101308.91
2022-12-05T00:22:09.713Z,101297.53
2022-12-05T00:24:38.311Z,101303.97
2022-12-05T00:27:06.979Z,101300.44
2022-12-05T00:29:35.593Z,101302.44
2022-12-05T00:32:04.283Z,101305.78
2022-12-05T00:34:32.917Z,101300.56
2022-12-05T00:37:02.919Z,101304.25
2022-12-05T00:39:31.510Z,101309.44
2022-12-05T00:42:00.130Z,101301.66
2022-12-05T00:44:28.784Z,101296.53
2022-12-05T00:46:57.434Z,101293.16
2022-12-05T00:49:26.028Z,101292.19
2022-12-05T00:51:54.681Z,101292.97
2022-12-05T00:54:24.823Z,101288.44
2022-12-05T00:56:56.304Z,101298.84
2022-12-05T00:59:25.332Z,101294.78
2022-12-05T01:01:54.055Z,101303.31
2022-12-05T01:04:24.944Z,101294.00
2022-12-05T01:06:57.301Z,101295.81
2022-12-05T01:09:27.815Z,101286.94
2022-12-05T01:11:56.683Z,101289.78
2022-12-05T01:14:27.209Z,101290.38
2022-12-05T01:16:57.558Z,101281.59
2022-12-05T01:19:29.714Z,101285.16
2022-12-05T01:21:59.461Z,101285.44
2022-12-05T01:24:30.802Z,101290.91
2022-12-05T01:26:59.492Z,101289.63
2022-12-05T01:29:28.383Z,101287.13
2022-12-05T01:31:57.287Z,101289.94
2022-12-05T01:34:26.146Z,101283.84
2022-12-05T01:36:54.834Z,101295.56
2022-12-05T01:39:23.667Z,101301.22
2022-12-05T01:41:53.726Z,101302.84
2022-12-05T01:44:59.811Z,101302.97
2022-12-05T01:47:31.605Z,101303.00
2022-12-05T01:50:02.073Z,101294.66
2022-12-05T01:52:32.955Z,101305.88
2022-12-05T01:55:05.523Z,101303.00
2022-12-05T01:57:35.794Z,101303.63
2022-12-05T02:00:10.242Z,101314.25
2022-12-05T02:02:40.363Z,101317.38
2022-12-05T02:05:15.017Z,101311.50
2022-12-05T02:07:45.169Z,101316.22
2022-12-05T02:10:14.610Z,101313.34
2022-12-05T02:12:46.394Z,101314.88
2022-12-05T02:15:30.824Z,101317.44
2022-12-05T02:18:15.140Z,101316.09
2022-12-05T02:20:55.555Z,101319.47
2022-12-05T02:23:51.845Z,101315.00
2022-12-05T02:26:57.126Z,101320.59
2022-12-05T02:29:57.297Z,101315.66
2022-12-05T02:32:39.557Z,101313.19
2022-12-05T02:35:19.178Z,101303.59
2022-12-05T02:37:55.445Z,101310.78
2022-12-05T02:40:28.126Z,101316.75
2022-12-05T02:43:02.066Z,101314.13
2022-12-05T02:45:36.860Z,101317.66
2022-12-05T02:48:06.768Z,101309.13
2022-12-05T02:50:38.994Z,101315.44
2022-12-05T02:53:12.131Z,101318.19
2022-12-05T02:55:43.004Z,101314.25
2022-12-05T02:58:17.024Z,101309.78
2022-12-05T03:00:50.705Z,101316.28
2022-12-05T03:03:22.460Z,101313.16
2022-12-05T03:05:56.416Z,101313.03
2022-12-05T03:08:32.070Z,101321.63
2022-12-05T03:11:02.631Z,101323.28
2022-12-05T03:13:35.370Z,101312.44
2022-12-05T03:16:11.174Z,101321.38
2022-12-05T03:18:44.285Z,101318.72
2022-12-05T03:21:22.827Z,101315.28
2022-12-05T03:23:56.735Z,101310.50
2022-12-05T03:26:37.279Z,101327.22
2022-12-05T03:29:18.101Z,101328.69
2022-12-05T03:31:55.867Z,101324.50
2022-12-05T03:34:37.402Z,101315.41
2022-12-05T03:37:10.783Z,101326.75
2022-12-05T03:39:45.411Z,101318.72
2022-12-05T03:42:18.148Z,101320.09
2022-12-05T03:44:53.697Z,101326.16
2022-12-05T03:47:28.260Z,101308.19
2022-12-05T03:50:02.211Z,101315.84
2022-12-05T03:52:50.904Z,101312.41
2022-12-05T03:55:27.488Z,101314.84
2022-12-05T03:58:01.800Z,101312.56
2022-12-05T04:00:36.268Z,101313.56
2022-12-05T04:03:10.688Z,101316.75
2022-12-05T04:05:44.384Z,101316.41
2022-12-05T04:08:17.939Z,101321.97
2022-12-05T04:10:49.583Z,101315.69
2022-12-05T04:13:23.296Z,101315.53
2022-12-05T04:16:15.105Z,101317.53
2022-12-05T04:18:57.069Z,101328.41
2022-12-05T04:21:38.648Z,101319.47
2022-12-05T04:24:27.087Z,101323.44
2022-12-05T04:27:09.665Z,101318.56
2022-12-05T04:29:46.342Z,101325.94
2022-12-05T04:32:15.951Z,101330.78
2022-12-05T04:34:54.065Z,101328.75
2022-12-05T04:37:26.594Z,101326.94
2022-12-05T04:40:00.279Z,101327.38
2022-12-05T04:42:32.311Z,101335.50
2022-12-05T04:45:04.678Z,101332.47
2022-12-05T04:47:38.506Z,101336.03
2022-12-05T04:50:12.071Z,101331.88
2022-12-05T04:52:43.060Z,101333.47
2022-12-05T04:55:15.427Z,101336.44
2022-12-05T04:57:52.575Z,101328.31
2022-12-05T05:00:21.242Z,101334.88
2022-12-05T05:02:55.319Z,101334.88
2022-12-05T05:05:26.353Z,101342.06
2022-12-05T05:07:56.059Z,101340.63
2022-12-05T05:10:31.633Z,101337.25
2022-12-05T05:13:00.229Z,101336.25
2022-12-05T05:15:28.875Z,101336.84
2022-12-05T05:17:57.461Z,101339.13
2022-12-05T05:20:27.904Z,101343.25
2022-12-05T05:22:58.231Z,101339.47
2022-12-05T05:25:27.695Z,101344.94
2022-12-05T05:27:58.151Z,101348.28
2022-12-05T05:30:27.132Z,101351.56
2022-12-05T05:32:55.790Z,101354.16
2022-12-05T05:35:26.109Z,101354.03
2022-12-05T05:37:54.696Z,101351.16
2022-12-05T05:40:23.369Z,101348.22
2022-12-05T05:42:52.028Z,101344.22
2022-12-05T05:45:20.722Z,101352.84
2022-12-05T05:47:50.442Z,101345.47
2022-12-05T05:50:21.778Z,101349.09
2022-12-05T05:52:52.145Z,101353.00
2022-12-05T05:55:20.947Z,101353.47
2022-12-05T06:00:24.010Z,101357.31
2022-12-05T06:02:52.737Z,101358.94
2022-12-05T06:05:21.481Z,101356.50
2022-12-05T06:07:53.276Z,101355.94
2022-12-05T06:10:21.968Z,101361.44
2022-12-05T06:12:50.568Z,101361.56
2022-12-05T06:15:19.307Z,101362.59
2022-12-05T06:17:47.892Z,101365.94
2022-12-05T06:20:16.562Z,101362.28
2022-12-05T06:22:45.203Z,101364.69
2022-12-05T06:25:15.192Z,101367.66
2022-12-05T06:27:43.782Z,101371.91
2022-12-05T06:30:13.186Z,101377.16
2022-12-05T06:32:41.764Z,101379.47
2022-12-05T06:35:15.805Z,101381.84
2022-12-05T06:37:44.882Z,101385.66
2022-12-05T06:40:15.752Z,101383.13
2022-12-05T06:42:44.359Z,101385.16
2022-12-05T06:45:13.536Z,101382.81
2022-12-05T06:47:42.378Z,101387.75
2022-12-05T06:50:11.483Z,101391.78
2022-12-05T06:52:40.089Z,101394.94
2022-12-05T06:55:09.194Z,101400.41
2022-12-05T06:57:39.132Z,101391.72
2022-12-05T07:00:22.993Z,101396.75
2022-12-05T07:02:52.685Z,101404.59
2022-12-05T07:05:21.614Z,101408.06
2022-12-05T07:07:50.261Z,101405.44
2022-12-05T07:10:18.972Z,101409.50
2022-12-05T07:12:48.943Z,101411.47
2022-12-05T07:15:17.670Z,101411.00
2022-12-05T07:17:46.236Z,101411.94
2022-12-05T07:20:17.845Z,101412.25
2022-12-05T07:22:46.636Z,101417.09
2022-12-05T07:25:15.283Z,101419.78
2022-12-05T07:27:43.889Z,101426.25
2022-12-05T07:30:14.695Z,101432.19
2022-12-05T07:32:43.325Z,101423.84
2022-12-05T07:35:11.948Z,101429.66
2022-12-05T07:37:40.591Z,101425.19
2022-12-05T07:40:11.149Z,101428.72
2022-12-05T07:42:39.756Z,101428.78
2022-12-05T07:45:09.690Z,101424.34
2022-12-05T07:47:39.705Z,101429.06
2022-12-05T07:50:09.459Z,101427.63
2022-12-05T07:52:38.074Z,101436.56
2022-12-05T07:55:07.746Z,101428.34
2022-12-05T07:57:36.391Z,101435.78
2022-12-05T08:00:06.919Z,101433.72
2022-12-05T08:02:40.328Z,101437.09
2022-12-05T08:05:11.028Z,101440.97
2022-12-05T08:07:39.712Z,101449.88
2022-12-05T08:10:10.146Z,101450.44
2022-12-05T08:12:39.067Z,101449.38
2022-12-05T08:15:09.230Z,101447.25
2022-12-05T08:17:37.843Z,101461.25
2022-12-05T08:20:07.753Z,101463.16
2022-12-05T08:22:37.817Z,101461.84
2022-12-05T08:25:07.051Z,101462.94
2022-12-05T08:27:35.702Z,101469.34
2022-12-05T08:30:04.735Z,101476.66
2022-12-05T08:32:33.365Z,101476.25
2022-12-05T08:35:01.954Z,101482.97
2022-12-05T08:37:30.590Z,101478.19
2022-12-05T08:40:00.632Z,101481.75
2022-12-05T08:42:29.645Z,101486.22
2022-12-05T08:44:58.479Z,101487.34
2022-12-05T08:47:27.680Z,101484.59
2022-12-05T08:49:56.463Z,101493.19
2022-12-05T08:52:25.502Z,101487.81
2022-12-05T08:54:54.160Z,101491.94
2022-12-05T08:57:24.156Z,101498.44
2022-12-05T08:59:52.755Z,101498.56
2022-12-05T09:02:21.475Z,101496.84
2022-12-05T09:04:54.065Z,101501.44
2022-12-05T09:07:22.877Z,101503.16
2022-12-05T09:09:52.350Z,101509.28
2022-12-05T09:12:20.976Z,101510.81
2022-12-05T09:14:50.985Z,101506.19
2022-12-05T09:17:19.652Z,101507.69
2022-12-05T09:19:51.983Z,101502.44
2022-12-05T09:22:25.011Z,101509.34
2022-12-05T09:24:53.674Z,101510.59
2022-12-05T09:27:22.354Z,101512.75
2022-12-05T09:29:52.326Z,101520.34
2022-12-05T09:32:20.961Z,101522.56
2022-12-05T09:34:49.552Z,101519.03
2022-12-05T09:37:38.077Z,101520.78
2022-12-05T09:40:08.462Z,101514.72
2022-12-05T09:42:54.862Z,101510.13
2022-12-05T09:45:35.093Z,101519.53
2022-12-05T09:48:08.566Z,101524.84
2022-12-05T09:50:45.310Z,101523.94
2022-12-05T09:53:23.032Z,101525.03
2022-12-05T09:55:54.209Z,101524.09
2022-12-05T09:58:29.969Z,101521.78
2022-12-05T10:01:05.193Z,101515.78
2022-12-05T10:03:42.357Z,101513.75
2022-12-05T10:06:19.345Z,101513.34
2022-12-05T10:09:19.566Z,101517.47
2022-12-05T10:11:54.916Z,101514.94
2022-12-05T10:14:34.073Z,101513.69
2022-12-05T10:17:12.208Z,101510.94
2022-12-05T10:19:47.570Z,101507.53
2022-12-05T10:22:21.020Z,101512.84
2022-12-05T10:24:54.849Z,101513.25
2022-12-05T10:27:35.370Z,101512.63
2022-12-05T10:30:13.954Z,101514.41
2022-12-05T10:32:52.485Z,101514.59
2022-12-05T10:35:23.211Z,101519.88
2022-12-05T10:37:53.933Z,101524.66
2022-12-05T10:40:22.724Z,101522.94
2022-12-05T10:42:52.083Z,101529.28
2022-12-05T10:45:23.152Z,101519.34
2022-12-05T10:47:57.681Z,101525.84
2022-12-05T10:50:29.884Z,101529.19
2022-12-05T10:53:00.481Z,101532.66
2022-12-05T10:55:34.991Z,101528.59
2022-12-05T10:58:17.652Z,101521.47
2022-12-05T11:00:51.792Z,101518.19
2022-12-05T11:03:28.954Z,101520.75
2022-12-05T11:06:01.058Z,101533.72
2022-12-05T11:09:02.683Z,101524.78
2022-12-05T11:11:24.446Z,101524.63
2022-12-05T11:13:56.267Z,101519.75
2022-12-05T11:16:29.446Z,101519.34
2022-12-05T11:19:18.873Z,101517.66
2022-12-05T11:21:47.473Z,101516.72
2022-12-05T11:24:23.961Z,101513.59
2022-12-05T11:26:52.606Z,101509.69
2022-12-05T11:29:36.163Z,101515.00
2022-12-05T11:32:06.408Z,101507.00
2022-12-05T11:34:43.653Z,101505.78
2022-12-05T11:37:19.339Z,101514.88
2022-12-05T11:39:48.003Z,101498.66
2022-12-05T11:42:30.886Z,101506.69
2022-12-05T11:45:18.944Z,101502.13
2022-12-05T11:48:10.202Z,101499.44
2022-12-05T11:50:47.526Z,101497.41
2022-12-05T11:53:52.115Z,101494.84
2022-12-05T11:56:33.422Z,101496.47
2022-12-05T11:59:20.703Z,101494.72
2022-12-05T12:02:00.008Z,101497.16
2022-12-05T12:05:01.922Z,101499.91
2022-12-05T12:07:45.385Z,101504.00
2022-12-05T12:10:23.804Z,101497.06
2022-12-05T12:13:05.492Z,101510.81
2022-12-05T12:16:01.847Z,101504.00
2022-12-05T12:19:01.962Z,101503.66
2022-12-05T12:21:40.238Z,101498.25
2022-12-05T12:24:20.204Z,101495.03
2022-12-05T12:26:58.236Z,101501.19
2022-12-05T12:29:45.819Z,101505.09
2022-12-05T12:32:28.781Z,101507.75
2022-12-05T12:35:23.802Z,101499.69
2022-12-05T12:38:07.006Z,101496.94
2022-12-05T12:40:44.921Z,101498.53
2022-12-05T12:43:52.594Z,101503.59
2022-12-05T12:46:25.122Z,101506.84
2022-12-05T12:49:29.445Z,101504.66
2022-12-05T12:52:02.992Z,101489.00
2022-12-05T12:55:11.985Z,101482.28
2022-12-05T12:57:58.166Z,101496.22
2022-12-05T13:00:39.356Z,101490.91
2022-12-05T13:03:14.166Z,101495.25
2022-12-05T13:05:49.431Z,101492.75
2022-12-05T13:08:25.239Z,101492.56
2022-12-05T13:10:54.833Z,101498.72
2022-12-05T13:13:30.731Z,101490.22
2022-12-05T13:16:02.376Z,101484.94
2022-12-05T13:18:31.059Z,101483.41
2022-12-05T13:21:02.132Z,101491.06
2022-12-05T13:23:33.747Z,101493.16
2022-12-05T13:26:08.910Z,101490.59
2022-12-05T13:28:43.103Z,101486.94
2022-12-05T13:31:17.150Z,101484.19
2022-12-05T13:33:48.630Z,101488.63
2022-12-05T13:36:37.946Z,101490.59
2022-12-05T13:39:26.485Z,101483.88
2022-12-05T13:42:16.173Z,101487.19
2022-12-05T13:44:49.982Z,101492.97
2022-12-05T13:47:28.455Z,101491.25
2022-12-05T13:50:03.276Z,101499.44
2022-12-05T13:52:40.212Z,101498.59
2022-12-05T13:55:23.947Z,101490.59
2022-12-05T13:57:57.032Z,101500.97
2022-12-05T14:00:33.363Z,101495.44
2022-12-05T14:03:07.246Z,101495.63
2022-12-05T14:06:00.036Z,101492.50
2022-12-05T14:08:54.082Z,101500.84
2022-12-05T14:11:22.834Z,101499.44
2022-12-05T14:13:51.515Z,101502.34
2022-12-05T14:16:53.333Z,101501.44
2022-12-05T14:19:51.530Z,101509.59
2022-12-05T14:22:50.116Z,101503.34
2022-12-05T14:25:51.687Z,101505.34
2022-12-05T14:28:41.048Z,101512.47
2022-12-05T14:31:26.205Z,101513.03
2022-12-05T14:34:25.837Z,101513.50
2022-12-05T14:37:00.671Z,101516.00
2022-12-05T14:39:44.534Z,101516.47
2022-12-05T14:42:26.589Z,101514.94
2022-12-05T14:44:58.926Z,101521.66
2022-12-05T14:47:30.511Z,101523.56
2022-12-05T14:50:22.107Z,101524.63
2022-12-05T14:53:23.238Z,101524.16
2022-12-05T14:55:55.489Z,101525.13
2022-12-05T14:58:36.899Z,101518.19
2022-12-05T15:01:09.677Z,101521.91
2022-12-05T15:03:41.931Z,101519.00
2022-12-05T15:06:17.882Z,101532.03
2022-12-05T15:08:50.213Z,101533.44
2022-12-05T15:11:29.226Z,101531.94
2022-12-05T15:14:04.039Z,101535.44
2022-12-05T15:16:34.456Z,101538.75
2022-12-05T15:19:07.220Z,101538.91
2022-12-05T15:21:42.450Z,101540.63
2022-12-05T15:24:15.723Z,101538.94
2022-12-05T15:26:48.982Z,101541.00
2022-12-05T15:29:25.900Z,101539.97
2022-12-05T15:31:56.991Z,101535.84
2022-12-05T15:34:30.506Z,101543.94
2022-12-05T15:37:06.154Z,101550.94
2022-12-05T15:39:54.582Z,101552.09
2022-12-05T15:42:29.254Z,101551.97
2022-12-05T15:45:21.792Z,101548.00
2022-12-05T15:47:51.872Z,101554.06
2022-12-05T15:50:26.378Z,101559.66
2022-12-05T15:53:00.832Z,101562.66
2022-12-05T15:55:32.417Z,101554.97
2022-12-05T15:58:12.556Z,101569.13
2022-12-05T16:00:46.101Z,101560.41
2022-12-05T16:03:18.118Z,101559.25
2022-12-05T16:05:53.276Z,101558.59
2022-12-05T16:08:24.426Z,101568.06
2022-12-05T16:10:53.306Z,101559.56
2022-12-05T16:13:26.107Z,101574.50
2022-12-05T16:15:56.360Z,101571.22
2022-12-05T16:18:28.563Z,101576.28
2022-12-05T16:20:57.327Z,101580.56
2022-12-05T16:23:30.329Z,101585.59
2022-12-05T16:26:18.514Z,101580.66
2022-12-05T16:28:59.539Z,101579.16
2022-12-05T16:31:28.324Z,101572.03
2022-12-05T16:34:05.068Z,101569.31
2022-12-05T16:36:34.556Z,101575.25
2022-12-05T16:39:07.610Z,101573.16
2022-12-05T16:41:37.540Z,101575.63
2022-12-05T16:44:15.173Z,101580.19
2022-12-05T16:46:47.117Z,101574.78
2022-12-05T16:49:32.714Z,101575.25
2022-12-05T16:52:04.834Z,101578.78
2022-12-05T16:54:34.886Z,101573.16
2022-12-05T16:57:04.083Z,101585.31
2022-12-05T16:59:34.915Z,101577.06
2022-12-05T17:02:05.542Z,101583.97
2022-12-05T17:04:34.309Z,101577.34
2022-12-05T17:07:03.026Z,101575.06
2022-12-05T17:09:33.008Z,101575.25
2022-12-05T17:12:06.153Z,101577.72
2022-12-05T17:14:34.769Z,101581.88
2022-12-05T17:17:05.974Z,101593.16
2022-12-05T17:19:34.569Z,101583.97
2022-12-05T17:22:03.164Z,101579.25
2022-12-05T17:24:33.323Z,101581.59
2022-12-05T17:27:01.973Z,101583.66
2022-12-05T17:29:35.459Z,101587.63
2022-12-05T17:32:04.625Z,101590.19
2022-12-05T17:34:33.238Z,101578.00
2022-12-05T17:37:02.669Z,101587.66
2022-12-05T17:39:31.287Z,101586.31
2022-12-05T17:42:01.323Z,101593.81
2022-12-05T17:44:30.654Z,101589.06
2022-12-05T17:47:07.505Z,101591.94
2022-12-05T17:49:36.763Z,101587.00
2022-12-05T17:52:22.319Z,101595.41
2022-12-05T17:54:51.516Z,101596.19
2022-12-05T17:57:21.529Z,101589.44
2022-12-05T17:59:50.139Z,101596.00
2022-12-05T18:02:20.165Z,101594.94
2022-12-05T18:04:48.872Z,101592.28
2022-12-05T18:07:17.665Z,101586.34
2022-12-05T18:09:46.283Z,101593.72
2022-12-05T18:12:14.907Z,101584.16
2022-12-05T18:14:44.946Z,101593.22
2022-12-05T18:17:13.577Z,101602.78
2022-12-05T18:19:42.363Z,101599.31
2022-12-05T18:22:10.948Z,101595.63
2022-12-05T18:24:39.599Z,101596.56
2022-12-05T18:27:08.524Z,101595.72
2022-12-05T18:29:37.196Z,101603.47
2022-12-05T18:32:07.515Z,101601.69
2022-12-05T18:34:36.243Z,101608.38
2022-12-05T18:37:04.819Z,101598.16
2022-12-05T18:39:33.628Z,101602.78
2022-12-05T18:42:02.228Z,101607.53
2022-12-05T18:44:31.924Z,101604.50
2022-12-05T18:47:00.542Z,101608.66
2022-12-05T18:49:30.515Z,101610.47
2022-12-05T18:51:59.169Z,101602.06
2022-12-05T18:54:27.803Z,101603.47
2022-12-05T18:56:56.651Z,101597.41
2022-12-05T18:59:25.827Z,101604.38
2022-12-05T19:01:54.463Z,101608.84
2022-12-05T19:04:23.636Z,101618.09
2022-12-05T19:06:55.515Z,101620.09
2022-12-05T19:09:26.003Z,101618.22
2022-12-05T19:11:57.023Z,101625.00
2022-12-05T19:14:27.684Z,101625.50
2022-12-05T19:17:00.096Z,101622.84
2022-12-05T19:19:29.873Z,101630.03
2022-12-05T19:22:00.139Z,101635.63
2022-12-05T19:24:28.981Z,101636.56
2022-12-05T19:26:57.642Z,101637.78
2022-12-05T19:29:26.285Z,101643.81
2022-12-05T19:31:54.950Z,101651.84
2022-12-05T19:34:24.465Z,101646.59
2022-12-05T19:36:53.127Z,101649.69
2022-12-05T19:39:27.111Z,101650.16
2022-12-05T19:41:57.644Z,101642.53
2022-12-05T19:44:26.591Z,101644.53
2022-12-05T19:46:55.205Z,101648.97
2022-12-05T19:49:24.207Z,101635.72
2022-12-05T19:51:52.797Z,101640.66
2022-12-05T19:54:24.193Z,101643.03
2022-12-05T19:56:53.785Z,101643.78
2022-12-05T19:59:22.412Z,101646.38
2022-12-05T20:01:51.136Z,101638.56
2022-12-05T20:04:19.807Z,101645.72
2022-12-05T20:06:50.071Z,101642.16
2022-12-05T20:09:20.990Z,101631.56
2022-12-05T20:11:55.646Z,101630.06
2022-12-05T20:14:26.562Z,101626.91
2022-12-05T20:16:55.725Z,101638.03
2022-12-05T20:19:24.919Z,101632.75
2022-12-05T20:21:55.398Z,101643.03
2022-12-05T20:24:24.172Z,101636.50
2022-12-05T20:26:54.141Z,101636.59
2022-12-05T20:29:22.796Z,101637.19
2022-12-05T20:31:56.684Z,101638.03
2022-12-05T20:34:25.379Z,101636.34
2022-12-05T20:36:53.991Z,101637.66
2022-12-05T20:39:24.799Z,101632.13
2022-12-05T20:41:54.937Z,101631.13
2022-12-05T20:44:23.783Z,101629.44
2022-12-05T20:46:52.728Z,101633.50
2022-12-05T20:49:21.414Z,101627.84
2022-12-05T20:51:50.011Z,101630.09
2022-12-05T20:54:18.912Z,101634.06
2022-12-05T20:56:47.620Z,101629.34
2022-12-05T20:59:17.829Z,101623.41
2022-12-05T21:01:47.591Z,101625.41
2022-12-05T21:04:16.496Z,101622.41
2022-12-05T21:06:46.652Z,101629.09
2022-12-05T21:09:26.734Z,101620.25
2022-12-05T21:11:55.771Z,101622.88
2022-12-05T21:14:25.934Z,101621.06
2022-12-05T21:16:54.800Z,101618.56
2022-12-05T21:19:23.838Z,101623.41
2022-12-05T21:21:53.824Z,101616.41
2022-12-05T21:24:22.642Z,101624.31
2022-12-05T21:26:52.046Z,101625.13
2022-12-05T21:29:20.685Z,101620.13
2022-12-05T21:31:52.716Z,101614.09
2022-12-05T21:34:22.246Z,101608.16
2022-12-05T21:36:50.888Z,101606.22
2022-12-05T21:39:19.509Z,101611.69
2022-12-05T21:41:48.130Z,101605.84
2022-12-05T21:44:16.712Z,101609.03
2022-12-05T21:46:45.511Z,101605.31
2022-12-05T21:49:15.487Z,101608.16
2022-12-05T21:51:44.119Z,101608.22
2022-12-05T21:54:12.818Z,101606.44
2022-12-05T21:56:42.110Z,101609.44
2022-12-05T21:59:10.759Z,101612.66
2022-12-05T22:01:39.454Z,101608.34
2022-12-05T22:04:08.095Z,101608.50
2022-12-05T22:06:38.172Z,101607.13
2022-12-05T22:09:06.814Z,101616.78
2022-12-05T22:11:35.447Z,101615.00
2022-12-05T22:14:04.052Z,101617.16
2022-12-05T22:16:33.685Z,101612.34
2022-12-05T22:19:02.967Z,101606.38
2022-12-05T22:21:33.903Z,101611.66
2022-12-05T22:24:04.065Z,101613.09
2022-12-05T22:26:32.735Z,101616.09
2022-12-05T22:29:01.506Z,101623.56
2022-12-05T22:31:30.298Z,101626.63
2022-12-05T22:33:58.997Z,101615.47
2022-12-05T22:36:27.665Z,101622.56
2022-12-05T22:38:56.293Z,101617.34
2022-12-05T22:41:27.817Z,101610.50
2022-12-05T22:43:58.196Z,101610.50
2022-12-05T22:46:29.389Z,101617.16
2022-12-05T22:48:58.433Z,101613.56
2022-12-05T22:51:27.945Z,101611.50
2022-12-05T22:53:56.986Z,101614.03
2022-12-05T22:56:28.948Z,101609.50
2022-12-05T22:58:59.172Z,101603.72
2022-12-05T23:01:30.112Z,101601.47
2022-12-05T23:04:00.358Z,101600.00
2022-12-05T23:06:30.809Z,101604.63
2022-12-05T23:08:59.916Z,101590.00
2022-12-05T23:11:30.897Z,101600.00
2022-12-05T23:14:02.211Z,101593.50
2022-12-05T23:16:32.941Z,101603.06
2022-12-05T23:19:03.420Z,101597.00
2022-12-05T23:21:34.514Z,101595.41
2022-12-05T23:24:05.703Z,101593.78
2022-12-05T23:26:37.865Z,101595.88
2022-12-05T23:29:06.925Z,101597.69
2022-12-05T23:31:35.986Z,101596.47
2022-12-05T23:34:04.935Z,101596.00
2022-12-05T23:36:34.464Z,101587.47
2022-12-05T23:39:03.602Z,101584.91
2022-12-05T23:41:32.473Z,101587.47
2022-12-05T23:44:02.789Z,101583.50
2022-12-05T23:46:31.633Z,101586.22
2022-12-05T23:49:00.367Z,101589.44
2022-12-05T23:51:30.542Z,101585.50
2022-12-05T23:54:02.983Z,101589.44
2022-12-05T23:56:33.637Z,101591.91
2022-12-05T23:59:04.922Z,101588.97
